Time;durP1;ratioP1;P1;durP2;ratioP2;P2;SDS_P1;SDS_P2;PMS_P1;PMS_P2;Temp;Humidity;BMP_temperature;BMP_pressure;BME280_temperature;BME280_humidity;BME280_pressure;Samples;Min_cycle;Max_cycle;Signal;HPM_P1;HPM_P2
2022/07/08 00:01:26;;;;;;;5.03;2.30;;;;;;;19.67;55.85;100432.87;125633;1099;104216;-77
2022/07/08 00:04:02;;;;;;;7.70;2.60;;;;;;;19.65;55.60;100435.53;125332;1099;104219;-77
2022/07/08 00:06:42;;;;;;;6.30;2.40;;;;;;;19.62;56.01;100437.30;125045;1102;104250;-77
2022/07/08 00:09:17;;;;;;;5.07;2.70;;;;;;;19.57;56.35;100431.98;124838;1099;104393;-77
2022/07/08 00:11:51;;;;;;;5.60;2.53;;;;;;;19.54;55.96;100427.58;125774;1099;104217;-77
2022/07/08 00:14:32;;;;;;;2.57;2.30;;;;;;;19.54;56.27;100430.23;125933;1099;104156;-77
2022/07/08 00:17:06;;;;;;;7.40;2.37;;;;;;;19.53;56.04;100419.59;125968;1099;104245;-79
2022/07/08 00:19:37;;;;;;;4.20;2.10;;;;;;;19.54;56.09;100424.91;125174;1102;104329;-79
2022/07/08 00:22:11;;;;;;;4.50;2.63;;;;;;;19.51;56.64;100416.94;125808;1099;104386;-78
2022/07/08 00:25:02;;;;;;;5.53;2.67;;;;;;;19.50;56.38;100416.94;125412;1102;104213;-77
2022/07/08 00:27:38;;;;;;;4.40;2.43;;;;;;;19.48;56.67;100410.75;125450;1099;104306;-77
2022/07/08 00:30:12;;;;;;;6.13;2.43;;;;;;;19.49;56.35;100412.50;125081;1102;104329;-77
2022/07/08 00:32:45;;;;;;;6.83;2.40;;;;;;;19.46;56.74;100413.41;125286;1100;103615;-78
2022/07/08 00:35:21;;;;;;;6.23;2.60;;;;;;;19.42;56.63;100416.95;125226;1102;104322;-78
2022/07/08 00:37:56;;;;;;;5.43;2.90;;;;;;;19.40;56.53;100403.66;124968;1102;104252;-76
2022/07/08 00:40:28;;;;;;;9.17;2.57;;;;;;;19.38;56.81;100405.44;125063;1099;104276;-77
2022/07/08 00:43:00;;;;;;;7.97;2.50;;;;;;;19.34;57.20;100406.33;125149;1102;104290;-78
2022/07/08 00:45:36;;;;;;;6.65;2.95;;;;;;;19.33;56.83;100409.86;125258;1102;104220;-80
2022/07/08 00:48:13;;;;;;;6.97;2.70;;;;;;;19.31;57.35;100414.31;126097;1099;104229;-79
2022/07/08 00:50:45;;;;;;;6.43;2.57;;;;;;;19.31;57.68;100405.45;125783;1099;104374;-78
2022/07/08 00:53:20;;;;;;;8.43;2.90;;;;;;;19.29;57.32;100402.80;125466;1099;104281;-77
2022/07/08 00:56:10;;;;;;;7.13;2.80;;;;;;;19.27;57.01;100393.91;125572;1099;101798;-78
2022/07/08 00:58:44;;;;;;;7.03;3.37;;;;;;;19.26;57.18;100394.82;125557;1099;104249;-78
2022/07/08 01:01:19;;;;;;;5.60;3.40;;;;;;;19.26;57.77;100394.82;125352;1100;104214;-79
2022/07/08 01:03:58;;;;;;;5.85;2.90;;;;;;;19.24;57.54;100401.02;125151;1102;104246;-78
2022/07/08 01:06:33;;;;;;;5.23;3.20;;;;;;;19.21;57.00;100402.80;125913;1099;104188;-78
2022/07/08 01:09:07;;;;;;;9.23;2.87;;;;;;;19.20;57.80;100406.34;125646;1099;104267;-78
2022/07/08 01:11:40;;;;;;;7.43;3.00;;;;;;;19.15;57.52;100402.81;125394;1099;104155;-77
2022/07/08 01:14:12;;;;;;;9.10;3.13;;;;;;;19.11;57.68;100400.16;124950;1099;104289;-77
2022/07/08 01:16:45;;;;;;;9.97;3.20;;;;;;;19.08;57.67;100400.16;124925;1102;104210;-77
2022/07/08 01:19:25;;;;;;;5.37;3.00;;;;;;;19.06;58.06;100399.25;125278;1099;104169;-77
2022/07/08 01:21:59;;;;;;;6.97;2.70;;;;;;;19.02;57.95;100393.94;125162;1102;104264;-78
2022/07/08 01:24:44;;;;;;;7.53;3.30;;;;;;;19.01;58.52;100393.94;124668;1102;104297;-79
2022/07/08 01:27:15;;;;;;;6.70;2.93;;;;;;;18.96;58.43;100391.28;125302;1099;104249;-78
2022/07/08 01:30:03;;;;;;;7.07;2.50;;;;;;;18.91;58.07;100393.06;125190;1102;104443;-78
2022/07/08 01:32:41;;;;;;;5.23;2.80;;;;;;;18.89;58.31;100394.84;125035;1102;104181;-77
2022/07/08 01:35:34;;;;;;;5.33;2.43;;;;;;;18.85;58.57;100391.31;125304;1102;104274;-79
2022/07/08 01:38:10;;;;;;;7.87;3.10;;;;;;;18.82;58.48;100393.03;125353;1102;103121;-77
2022/07/08 01:40:46;;;;;;;6.57;3.07;;;;;;;18.79;58.77;100393.02;125350;1102;102361;-78
2022/07/08 01:43:21;;;;;;;5.73;2.60;;;;;;;18.77;58.45;100406.31;125248;1102;104417;-78
2022/07/08 01:45:55;;;;;;;4.73;2.43;;;;;;;18.77;58.53;100411.62;125224;1102;104326;-79
2022/07/08 01:48:32;;;;;;;4.40;2.70;;;;;;;18.75;58.33;100412.53;125532;1102;102346;-78
2022/07/08 01:51:09;;;;;;;5.00;2.80;;;;;;;18.70;59.05;100409.87;125265;1103;104245;-79
2022/07/08 01:53:45;;;;;;;6.30;3.20;;;;;;;18.69;58.98;100403.65;125737;1103;107088;-77
2022/07/08 01:56:19;;;;;;;4.43;2.57;;;;;;;18.72;59.13;100408.09;125513;1102;104251;-77
2022/07/08 01:58:52;;;;;;;6.17;2.85;;;;;;;18.70;59.02;100404.56;125280;1102;104175;-77
2022/07/08 02:01:24;;;;;;;4.70;2.67;;;;;;;18.66;58.65;100403.64;125334;1102;104165;-76
2022/07/08 02:03:56;;;;;;;3.33;2.73;;;;;;;18.64;58.87;100402.77;125356;1102;121305;-76
2022/07/08 02:06:29;;;;;;;8.43;2.90;;;;;;;18.60;59.43;100403.64;125368;1099;104245;-76
2022/07/08 02:09:01;;;;;;;7.70;3.03;;;;;;;18.55;59.13;100400.09;125246;1099;102100;-76
2022/07/08 02:14:29;;;;;;;6.27;3.13;;;;;;;18.47;59.15;100394.77;125253;1099;104162;-76
2022/07/08 02:17:00;;;;;;;8.63;2.80;;;;;;;18.45;59.87;100398.30;125427;1100;102973;-76
2022/07/08 02:19:41;;;;;;;4.53;2.57;;;;;;;18.44;59.67;100402.73;125276;1099;104364;-76
2022/07/08 02:22:13;;;;;;;6.27;3.10;;;;;;;18.42;59.50;100407.17;125566;1099;104191;-77
2022/07/08 02:24:47;;;;;;;6.87;2.97;;;;;;;18.38;59.54;100407.16;125986;1099;109532;-77
2022/07/08 02:27:27;;;;;;;6.03;2.90;;;;;;;18.35;59.72;100407.15;125264;1099;104262;-78
2022/07/08 02:30:05;;;;;;;5.97;2.83;;;;;;;18.33;59.72;100404.49;125620;1099;102945;-79
2022/07/08 02:32:37;;;;;;;6.03;2.77;;;;;;;18.32;59.80;100398.30;125926;1099;104239;-77
2022/07/08 02:35:18;;;;;;;7.73;2.87;;;;;;;18.31;59.77;100404.48;125439;1102;104351;-77
2022/07/08 02:37:57;;;;;;;6.17;2.70;;;;;;;18.30;59.41;100408.02;125420;1102;104370;-77
2022/07/08 02:40:32;;;;;;;7.23;2.80;;;;;;;18.29;60.00;100406.27;124659;1102;104306;-77
2022/07/08 02:43:10;;;;;;;;;;;;;;;18.29;59.76;100408.02;125438;1099;104230;-77
2022/07/08 02:45:41;;;;;;;5.67;2.87;;;;;;;18.27;59.85;100415.09;125352;1099;104258;-77
2022/07/08 02:48:13;;;;;;;3.70;2.30;;;;;;;18.26;59.94;100419.53;125661;1099;104163;-77
2022/07/08 02:50:45;;;;;;;4.67;2.40;;;;;;;18.26;59.94;100430.16;125475;1099;102810;-78
2022/07/08 02:53:19;;;;;;;6.60;3.20;;;;;;;18.27;60.21;100426.59;125579;1099;104232;-77
2022/07/08 02:56:01;;;;;;;5.80;3.00;;;;;;;18.25;60.29;100430.16;124963;1099;104281;-78
2022/07/08 02:58:33;;;;;;;6.30;3.07;;;;;;;18.25;60.42;100436.34;125806;1099;104274;-77
2022/07/08 03:01:05;;;;;;;7.93;3.20;;;;;;;18.26;60.64;100430.16;125147;1099;104191;-76
2022/07/08 03:03:37;;;;;;;7.63;2.73;;;;;;;18.26;60.69;100424.84;125552;1099;104236;-77
2022/07/08 03:06:19;;;;;;;7.73;2.90;;;;;;;18.25;60.78;100424.84;124692;1099;104338;-78
2022/07/08 03:09:15;;;;;;;7.50;2.80;;;;;;;18.24;60.77;100426.59;126488;1099;104189;-78
2022/07/08 03:12:01;;;;;;;6.20;2.87;;;;;;;18.23;60.79;100430.15;126015;1099;101833;-78
2022/07/08 03:14:59;;;;;;;4.53;2.97;;;;;;;18.25;60.66;100427.50;125987;1099;104108;-78
2022/07/08 03:18:13;;;;;;;7.17;3.07;;;;;;;18.26;61.00;100434.56;125554;1102;104194;-77
2022/07/08 03:21:30;;;;;;;7.23;3.40;;;;;;;18.30;60.73;100433.70;125567;1102;104101;-78
2022/07/08 03:24:06;;;;;;;6.40;2.83;;;;;;;18.29;60.80;100430.17;125365;1102;102976;-78
2022/07/08 03:26:46;;;;;;;8.03;3.20;;;;;;;18.29;60.82;100426.60;125382;1102;104434;-78
2022/07/08 03:29:26;;;;;;;6.53;3.37;;;;;;;18.31;60.96;100433.70;125348;1105;102367;-77
2022/07/08 03:32:17;;;;;;;5.95;2.85;;;;;;;18.35;61.02;100433.71;125699;1105;102159;-77
2022/07/08 03:35:01;;;;;;;5.43;3.10;;;;;;;18.38;60.60;100439.91;125633;1102;104220;-77
2022/07/08 03:38:10;;;;;;;6.23;3.00;;;;;;;18.43;60.65;100442.58;125573;1105;102151;-77
2022/07/08 03:43:38;;;;;;;14.63;3.60;;;;;;;18.50;60.70;100455.01;124703;1102;104174;-77
2022/07/08 03:46:13;;;;;;;8.33;3.10;;;;;;;18.53;60.75;100444.39;125338;1105;112058;-77
2022/07/08 03:48:45;;;;;;;12.40;3.23;;;;;;;18.59;60.42;100452.38;125032;1102;104171;-77
2022/07/08 03:51:23;;;;;;;11.77;3.70;;;;;;;18.64;60.30;100453.27;125233;1099;104337;-77
2022/07/08 03:53:55;;;;;;;9.57;3.33;;;;;;;18.66;60.12;100451.48;125779;1099;104187;-77
2022/07/08 03:56:36;;;;;;;6.60;3.00;;;;;;;18.69;60.85;100453.27;126110;1099;104338;-76
2022/07/08 03:59:27;;;;;;;8.00;3.03;;;;;;;18.73;60.60;100457.72;125127;1099;104293;-78
2022/07/08 04:02:05;;;;;;;5.10;2.67;;;;;;;18.77;60.10;100453.28;125789;1099;101808;-78
2022/07/08 04:04:43;;;;;;;9.77;3.20;;;;;;;18.83;60.40;100453.29;125940;1099;105470;-78
2022/07/08 04:07:21;;;;;;;10.80;3.20;;;;;;;18.91;60.24;100463.97;125778;1099;104357;-77
2022/07/08 04:09:54;;;;;;;8.07;3.17;;;;;;;18.99;60.28;100468.38;125935;1102;104328;-78
2022/07/08 04:12:32;;;;;;;5.60;3.00;;;;;;;19.08;60.30;100458.66;126582;1099;102637;-78
2022/07/08 04:15:17;;;;;;;8.07;3.00;;;;;;;19.14;60.38;100461.33;126012;1100;101798;-79
2022/07/08 04:17:52;;;;;;;8.40;2.97;;;;;;;19.21;60.71;100469.30;126925;1099;104248;-78
2022/07/08 04:20:30;;;;;;;7.97;2.93;;;;;;;19.22;60.01;100460.41;126745;1098;104194;-79
2022/07/08 04:23:13;;;;;;;10.87;2.97;;;;;;;19.28;60.18;100472.84;126660;1099;104319;-79
2022/07/08 04:25:45;;;;;;;4.45;2.80;;;;;;;19.34;59.77;100467.52;125759;1099;103003;-77
2022/07/08 04:28:32;;;;;;;4.83;2.70;;;;;;;19.39;59.99;100468.38;125745;1099;104259;-80
2022/07/08 04:31:20;;;;;;;3.87;2.70;;;;;;;19.42;59.86;100477.27;125675;1102;104287;-78
2022/07/08 04:34:04;;;;;;;9.77;3.27;;;;;;;19.45;60.15;100467.50;125535;1102;104248;-79
2022/07/08 04:39:52;;;;;;;3.80;3.10;;;;;;;19.50;60.27;100476.36;125556;1102;104242;-78
2022/07/08 04:42:29;;;;;;;7.90;3.13;;;;;;;19.54;59.92;100477.23;125352;1102;104274;-75
2022/07/08 04:45:14;;;;;;;8.63;3.20;;;;;;;19.59;60.53;100486.11;125306;1102;104309;-76
2022/07/08 04:47:56;;;;;;;11.10;3.40;;;;;;;19.63;60.47;100485.20;125211;1102;104173;-76
2022/07/08 04:50:52;;;;;;;7.07;3.30;;;;;;;19.69;60.08;100484.31;125801;1102;104210;-79
2022/07/08 04:53:43;;;;;;;8.60;2.90;;;;;;;19.80;60.02;100482.54;125512;1105;101997;-79
2022/07/08 04:56:17;;;;;;;5.53;3.47;;;;;;;19.85;60.04;100480.77;125552;1102;104191;-78
2022/07/08 05:49:05;;;;;;;7.77;3.50;;;;;;;20.83;59.90;100455.45;124583;1102;104169;-76
2022/07/08 05:51:37;;;;;;;4.30;3.00;;;;;;;20.92;59.24;100451.80;124441;1102;104173;-75
2022/07/08 05:54:10;;;;;;;5.13;3.30;;;;;;;20.98;58.99;100453.55;124393;1102;104221;-77
2022/07/08 05:56:41;;;;;;;6.33;3.20;;;;;;;21.07;58.88;100444.61;124244;1102;104166;-77
2022/07/08 05:59:19;;;;;;;8.23;3.40;;;;;;;21.19;59.74;100445.38;124526;1102;102944;-78
2022/07/08 06:01:55;;;;;;;7.13;2.90;;;;;;;21.29;58.79;100446.17;124555;1102;104259;-78
2022/07/08 06:04:28;;;;;;;8.18;3.22;;;;;;;21.41;59.36;100454.95;124365;1102;104278;-77
2022/07/08 06:07:00;;;;;;;4.70;3.00;;;;;;;21.50;58.05;100441.55;124571;1102;104192;-75
2022/07/08 06:09:31;;;;;;;5.27;2.90;;;;;;;21.56;58.17;100433.48;124561;1102;102473;-76
2022/07/08 06:12:04;;;;;;;7.53;3.33;;;;;;;21.63;57.80;100439.63;124642;1102;104248;-77
2022/07/08 06:14:42;;;;;;;11.53;3.47;;;;;;;21.71;57.74;100445.79;124429;1102;104262;-77
2022/07/08 06:17:17;;;;;;;7.17;3.10;;;;;;;21.83;58.53;100442.08;124371;1103;104197;-79
2022/07/08 06:19:54;;;;;;;8.13;3.23;;;;;;;21.94;57.55;100441.95;124514;1102;104245;-78
2022/07/08 06:22:29;;;;;;;6.23;3.23;;;;;;;22.06;57.74;100439.12;124483;1102;103007;-76
2022/07/08 06:25:06;;;;;;;7.47;3.43;;;;;;;22.15;57.67;100439.02;124501;1102;104511;-77
2022/07/08 06:27:40;;;;;;;8.47;3.60;;;;;;;22.23;57.20;100437.12;125962;1102;102792;-79
2022/07/08 06:30:13;;;;;;;6.90;3.00;;;;;;;22.30;56.60;100439.70;124559;1102;103283;-79
2022/07/08 06:32:45;;;;;;;4.97;2.83;;;;;;;22.29;56.45;100440.63;124283;1103;104268;-77
2022/07/08 06:35:17;;;;;;;5.20;2.67;;;;;;;22.34;56.48;100439.67;124420;1105;104677;-77
2022/07/08 06:37:55;;;;;;;4.97;2.63;;;;;;;22.36;55.64;100436.98;124651;1102;102553;-77
2022/07/08 06:40:27;;;;;;;3.87;2.60;;;;;;;22.43;54.89;100438.67;124279;1105;104156;-79
2022/07/08 06:42:59;;;;;;;4.63;2.83;;;;;;;22.49;55.19;100443.94;124276;1102;104326;-77
2022/07/08 06:45:32;;;;;;;5.17;2.60;;;;;;;22.57;55.16;100438.48;124497;1102;104195;-78
2022/07/08 06:48:13;;;;;;;4.80;2.90;;;;;;;22.69;55.67;100440.06;124644;1102;104159;-78
2022/07/08 06:50:56;;;;;;;5.13;2.73;;;;;;;22.76;55.00;100441.75;124343;1103;104245;-78
2022/07/08 06:54:34;;;;;;;6.50;2.73;;;;;;;22.84;54.55;100438.95;124450;1102;104246;-80
2022/07/08 06:56:27;;;;;;;4.70;2.90;;;;;;;22.92;54.18;100443.30;125318;1102;104194;-80
2022/07/08 06:58:59;;;;;;;5.30;2.75;;;;;;;22.96;53.98;100442.31;125596;1101;102624;-80
2022/07/08 07:01:53;;;;;;;7.77;2.80;;;;;;;22.98;53.96;100440.52;125299;1102;118957;-80
2022/07/08 07:04:32;;;;;;;6.37;2.97;;;;;;;23.03;53.42;100444.89;125250;1102;104169;-78
2022/07/08 07:07:07;;;;;;;6.50;3.17;;;;;;;23.12;53.48;100442.09;124221;1102;104205;-77
2022/07/08 07:09:39;;;;;;;4.70;2.97;;;;;;;23.28;53.00;100448.96;124419;1102;104192;-76
2022/07/08 07:12:14;;;;;;;6.07;2.80;;;;;;;23.52;52.69;100436.03;124464;1102;104162;-77
2022/07/08 07:14:47;;;;;;;7.83;3.10;;;;;;;23.77;52.34;100435.56;124269;1101;104197;-79
2022/07/08 07:17:24;;;;;;;3.23;2.50;;;;;;;23.98;51.64;100436.94;124252;1102;104191;-78
2022/07/08 07:19:56;;;;;;;6.07;2.80;;;;;;;24.08;51.47;100432.30;124295;1102;104156;-77
2022/07/08 07:22:32;;;;;;;5.07;2.70;;;;;;;24.17;50.83;100434.78;124254;1102;108667;-77
2022/07/08 07:25:09;;;;;;;7.03;2.80;;;;;;;24.25;51.08;100432.80;124065;1105;104245;-82
2022/07/08 07:27:44;;;;;;;5.77;3.07;;;;;;;24.19;49.31;100433.81;124494;1102;104703;-78
2022/07/08 07:30:18;;;;;;;4.40;2.60;;;;;;;24.20;49.41;100426.67;124708;1102;102920;-79
2022/07/08 07:32:58;;;;;;;9.57;5.33;;;;;;;24.32;49.92;100433.55;126111;1102;102701;-79
2022/07/08 07:35:33;;;;;;;8.17;4.53;;;;;;;24.55;49.03;100438.39;125621;1102;104249;-77
2022/07/08 07:38:08;;;;;;;11.60;3.10;;;;;;;24.68;49.16;100439.92;125213;1102;103676;-74
2022/07/08 07:40:40;;;;;;;3.40;2.70;;;;;;;24.80;48.80;100435.17;124305;1103;103912;-76
2022/07/08 07:43:15;;;;;;;5.70;2.60;;;;;;;25.05;47.96;100424.70;124271;1102;104562;-74
2022/07/08 07:45:54;;;;;;;4.20;2.50;;;;;;;25.22;47.13;100435.88;124178;1102;104178;-74
2022/07/08 07:48:34;;;;;;;5.50;2.70;;;;;;;25.36;46.93;100422.12;124155;1102;104364;-76
2022/07/08 07:51:08;;;;;;;3.63;2.30;;;;;;;25.57;46.25;100419.77;125209;1102;102692;-78
2022/07/08 07:53:48;;;;;;;6.70;2.43;;;;;;;25.83;45.44;100422.59;124548;1102;104379;-77
2022/07/08 07:56:23;;;;;;;5.57;2.40;;;;;;;26.03;45.56;100418.49;124520;1102;104374;-80
2022/07/08 07:58:55;;;;;;;4.63;2.53;;;;;;;26.19;45.70;100416.22;124576;1102;104238;-75
2022/07/08 08:01:31;;;;;;;7.40;2.60;;;;;;;26.43;45.29;100413.69;124453;1102;103421;-76
2022/07/08 08:04:08;;;;;;;5.90;2.43;;;;;;;26.63;45.03;100423.83;124403;1102;102551;-78
2022/07/08 08:06:41;;;;;;;6.37;2.73;;;;;;;26.77;43.85;100410.86;125604;1102;102856;-79
2022/07/08 08:09:16;;;;;;;4.40;2.23;;;;;;;26.84;44.01;100415.09;125510;1102;103476;-80
2022/07/08 08:11:51;;;;;;;3.00;2.40;;;;;;;26.90;41.96;100422.96;124940;1102;104214;-78
2022/07/08 08:14:27;;;;;;;3.80;1.93;;;;;;;27.05;42.76;100416.20;125542;1102;102595;-81
2022/07/08 08:16:59;;;;;;;6.30;2.20;;;;;;;27.24;43.28;100413.74;125499;1102;102380;-77
2022/07/08 08:19:32;;;;;;;4.90;2.30;;;;;;;27.37;42.47;100407.95;125454;1102;104290;-78
2022/07/08 08:22:07;;;;;;;;;;;;;;;27.49;40.12;100403.92;124680;1101;104274;-77
2022/07/08 08:24:39;;;;;;;4.22;2.20;;;;;;;27.54;41.41;100419.00;124698;1102;103523;-77
2022/07/08 08:27:18;;;;;;;5.60;2.43;;;;;;;27.40;41.70;100400.63;125448;1102;104236;-75
2022/07/08 08:29:50;;;;;;;6.20;2.60;;;;;;;27.55;41.53;100401.01;124660;1102;104310;-75
2022/07/08 08:32:25;;;;;;;5.03;2.43;;;;;;;27.69;39.74;100408.59;124635;1102;103040;-76
2022/07/08 08:35:05;;;;;;;6.90;2.73;;;;;;;27.59;40.54;100395.45;124579;1101;104639;-78
2022/07/08 08:37:44;;;;;;;3.53;2.37;;;;;;;27.69;40.19;100397.81;124536;1102;104236;-77
2022/07/08 08:40:20;;;;;;;3.47;2.80;;;;;;;27.79;40.84;100392.02;124567;1102;104258;-77
2022/07/08 08:43:03;;;;;;;7.50;3.30;;;;;;;28.00;41.10;100389.47;124492;1102;102980;-77
2022/07/08 08:45:35;;;;;;;3.83;2.63;;;;;;;28.08;40.52;100390.08;125399;1101;102879;-78
2022/07/08 08:48:11;;;;;;;4.80;2.47;;;;;;;28.15;40.10;100391.58;125475;1102;104169;-77
2022/07/08 08:50:56;;;;;;;6.00;2.27;;;;;;;28.13;39.21;100393.46;126206;1102;102051;-78
2022/07/08 08:53:40;;;;;;;7.13;2.77;;;;;;;28.15;39.17;100383.48;126079;1102;102486;-78
2022/07/08 08:56:15;;;;;;;5.17;2.63;;;;;;;28.08;39.16;100378.39;126212;1101;102263;-82
2022/07/08 08:58:49;;;;;;;8.73;3.02;;;;;;;28.00;39.71;100383.21;126043;1101;103907;-79
2022/07/08 09:01:28;;;;;;;7.60;3.30;;;;;;;28.03;39.21;100381.27;125991;1100;103097;-81
2022/07/08 09:04:02;;;;;;;7.07;3.77;;;;;;;28.08;39.30;100375.69;126105;1099;102053;-80
2022/07/08 09:06:33;;;;;;;8.23;3.73;;;;;;;28.16;39.23;100387.08;126110;1101;103272;-79
2022/07/08 09:09:14;;;;;;;8.30;3.13;;;;;;;28.26;39.13;100379.50;126065;1100;102491;-79
2022/07/08 09:11:47;;;;;;;6.83;3.40;;;;;;;28.29;39.32;100379.37;126101;1101;103465;-78
2022/07/08 09:14:25;;;;;;;3.95;3.33;;;;;;;28.38;38.92;100367.34;126007;1102;102909;-77
2022/07/08 09:17:16;;;;;;;9.10;3.87;;;;;;;28.48;38.98;100374.11;125968;1102;103571;-78
2022/07/08 09:19:51;;;;;;;6.17;3.37;;;;;;;28.54;38.65;100383.78;126022;1102;103202;-79
2022/07/08 09:22:25;;;;;;;4.33;2.90;;;;;;;28.51;37.96;100379.37;126089;1102;101803;-78
2022/07/08 09:25:02;;;;;;;4.77;2.47;;;;;;;28.50;38.38;100372.21;126049;1102;118958;-79
2022/07/08 09:27:44;;;;;;;7.70;3.30;;;;;;;28.52;37.74;100386.55;125989;1102;102221;-79
2022/07/08 09:30:18;;;;;;;4.07;2.80;;;;;;;28.43;37.81;100378.83;125989;1102;102596;-79
2022/07/08 09:33:05;;;;;;;8.07;2.73;;;;;;;28.50;37.82;100370.41;126030;1102;102405;-79
2022/07/08 09:35:42;;;;;;;7.03;3.40;;;;;;;28.54;37.54;100367.59;126082;1102;102837;-78
2022/07/08 09:38:17;;;;;;;4.63;2.70;;;;;;;28.60;37.43;100379.04;125984;1101;102755;-78
2022/07/08 09:40:59;;;;;;;6.00;3.20;;;;;;;28.67;37.42;100371.55;125937;1102;102573;-80
2022/07/08 09:43:50;;;;;;;4.17;2.73;;;;;;;28.82;37.74;100360.11;126031;1102;103020;-78
2022/07/08 09:46:22;;;;;;;4.13;2.60;;;;;;;28.90;37.20;100359.78;125998;1102;102653;-80
2022/07/08 09:48:56;;;;;;;7.70;2.70;;;;;;;29.01;37.17;100346.69;126140;1102;102164;-77
2022/07/08 09:51:35;;;;;;;8.73;2.72;;;;;;;28.99;37.12;100345.89;117167;1102;10002124;-79
2022/07/08 09:54:17;;;;;;;5.83;2.80;;;;;;;29.01;36.63;100357.49;126074;1101;103137;-77
2022/07/08 09:56:59;;;;;;;4.43;2.47;;;;;;;28.93;36.90;100354.25;126099;1101;102971;-79
2022/07/08 09:59:42;;;;;;;9.70;2.80;;;;;;;28.85;36.53;100351.02;125978;1100;103700;-79
2022/07/08 10:02:35;;;;;;;3.23;2.50;;;;;;;28.93;36.72;100347.98;125982;1102;102684;-78
2022/07/08 10:05:27;;;;;;;15.43;7.00;;;;;;;28.92;36.57;100340.81;126024;1102;103797;-78
2022/07/08 10:08:15;;;;;;;11.23;3.37;;;;;;;28.90;36.66;100330.08;126000;1102;102229;-78
2022/07/08 10:11:21;;;;;;;7.40;3.07;;;;;;;28.92;37.09;100335.42;126112;1102;102429;-79
2022/07/08 10:14:10;;;;;;;3.17;2.40;;;;;;;28.92;36.48;100330.92;126055;1101;103591;-81
2022/07/08 10:16:57;;;;;;;6.63;2.87;;;;;;;28.89;36.68;100331.05;126094;1101;102519;-80
2022/07/08 10:19:40;;;;;;;7.73;3.03;;;;;;;28.97;36.54;100330.72;126150;1101;102463;-78
2022/07/08 10:22:12;;;;;;;8.30;2.90;;;;;;;28.98;36.66;100330.62;125357;1101;104207;-79
2022/07/08 10:24:49;;;;;;;8.70;2.83;;;;;;;29.06;36.73;100324.88;124779;1102;104262;-81
2022/07/08 10:27:27;;;;;;;6.67;3.63;;;;;;;29.15;36.50;100318.20;125702;1101;104431;-79
2022/07/08 10:30:15;;;;;;;9.77;2.97;;;;;;;29.27;36.77;100323.09;125658;1102;104210;-80
2022/07/08 10:32:54;;;;;;;4.63;2.77;;;;;;;29.25;36.58;100327.70;125358;1102;103271;-78
2022/07/08 10:35:29;;;;;;;9.07;2.67;;;;;;;29.24;36.68;100327.77;125584;1102;102833;-77
2022/07/08 10:38:31;;;;;;;8.83;2.83;;;;;;;29.18;36.49;100321.64;125552;1099;102096;-77
2022/07/08 10:41:11;;;;;;;8.50;3.40;;;;;;;29.14;36.23;100319.14;124761;1099;104160;-76
2022/07/08 10:43:54;;;;;;;8.37;2.80;;;;;;;29.21;36.11;100315.27;125466;1102;102258;-79
2022/07/08 10:46:27;;;;;;;11.03;4.00;;;;;;;29.34;36.84;100321.89;124462;1099;104178;-78
2022/07/08 10:49:03;;;;;;;5.27;2.90;;;;;;;29.45;36.31;100318.70;124561;1103;102746;-80
2022/07/08 10:51:50;;;;;;;;;;;;;;;29.48;35.93;100317.66;125596;1101;104124;-79
2022/07/08 10:54:42;;;;;;;9.07;2.93;;;;;;;29.51;36.08;100317.52;125573;1102;103092;-80
2022/07/08 10:57:38;;;;;;;5.30;3.10;;;;;;;29.61;35.68;100310.75;125476;1100;107045;-81
2022/07/08 11:00:16;;;;;;;9.53;3.40;;;;;;;29.73;35.51;100310.18;125457;1103;104102;-80
2022/07/08 11:03:09;;;;;;;7.87;3.27;;;;;;;29.87;35.38;100301.45;124764;1102;103397;-77
2022/07/08 11:05:55;;;;;;;6.40;2.67;;;;;;;30.04;34.90;100303.30;125685;1099;103656;-78
2022/07/08 11:08:31;;;;;;;6.43;3.17;;;;;;;30.00;34.72;100301.72;125577;1099;104184;-78
2022/07/08 11:11:06;;;;;;;9.17;3.20;;;;;;;30.10;34.86;100302.14;125471;1102;104249;-79
2022/07/08 11:13:41;;;;;;;9.17;3.60;;;;;;;30.10;34.48;100289.48;125559;1102;102800;-78
2022/07/08 11:16:19;;;;;;;6.07;3.13;;;;;;;30.13;34.75;100287.60;124797;1099;104201;-77
2022/07/08 11:18:53;;;;;;;9.13;3.60;;;;;;;30.23;34.70;100278.05;124631;1102;103151;-76
2022/07/08 11:21:25;;;;;;;;;;;;;;;30.11;33.82;100290.38;124859;1102;103509;-76
2022/07/08 11:23:58;;;;;;;6.87;3.00;;;;;;;29.96;34.56;100289.28;124624;1099;104398;-77
2022/07/08 11:26:31;;;;;;;5.12;3.00;;;;;;;30.00;34.54;100284.63;124907;1102;104279;-80
2022/07/08 11:29:03;;;;;;;6.37;3.10;;;;;;;30.02;34.29;100286.28;124672;1102;103729;-77
2022/07/08 11:31:35;;;;;;;7.90;3.27;;;;;;;30.13;34.48;100282.19;124626;1099;103270;-77
2022/07/08 11:34:20;;;;;;;6.97;3.50;;;;;;;30.31;34.37;100286.69;124669;1100;104236;-80
2022/07/08 11:37:05;;;;;;;12.90;3.30;;;;;;;30.39;34.15;100283.63;125659;1102;102798;-78
2022/07/08 11:39:53;;;;;;;6.37;3.20;;;;;;;30.39;34.48;100281.80;125980;1102;102787;-76
2022/07/08 11:42:29;;;;;;;7.77;3.63;;;;;;;30.32;34.20;100282.14;126010;1102;101945;-77
2022/07/08 11:45:10;;;;;;;5.73;3.37;;;;;;;30.28;34.22;100276.02;125947;1102;102802;-77
2022/07/08 11:47:45;;;;;;;11.77;3.60;;;;;;;30.30;34.15;100279.52;125958;1102;103814;-78
2022/07/08 11:50:33;;;;;;;5.37;3.33;;;;;;;30.33;34.21;100279.36;125787;1101;102986;-78
2022/07/08 11:53:06;;;;;;;5.37;3.60;;;;;;;30.36;34.23;100278.34;125648;1106;103801;-78
2022/07/08 11:55:52;;;;;;;13.90;6.70;;;;;;;30.29;33.99;100275.94;125652;1105;102260;-79
2022/07/08 11:58:30;;;;;;;8.50;3.20;;;;;;;30.20;33.88;100280.91;125667;1102;102362;-79
2022/07/08 12:01:08;;;;;;;6.17;3.50;;;;;;;30.22;34.19;100262.80;125750;1102;103508;-78
2022/07/08 12:03:40;;;;;;;14.27;6.33;;;;;;;30.37;34.20;100259.32;125701;1102;102885;-79
2022/07/08 12:06:32;;;;;;;10.97;4.43;;;;;;;30.55;34.12;100273.77;125777;1102;102558;-79
2022/07/08 12:12:51;;;;;;;;;;;;;;;30.58;33.25;100262.78;125942;1102;103198;-78
2022/07/08 12:15:42;;;;;;;5.57;3.20;;;;;;;30.64;33.33;100257.05;126348;1099;102478;-79
2022/07/08 12:18:31;;;;;;;4.97;3.30;;;;;;;30.56;33.17;100258.38;125912;1102;103490;-78
2022/07/08 12:21:19;;;;;;;5.57;2.87;;;;;;;30.51;33.12;100255.95;126115;1099;102457;-81
2022/07/08 12:24:01;;;;;;;9.43;3.33;;;;;;;30.63;33.07;100257.98;126086;1099;102489;-79
2022/07/08 12:26:56;;;;;;;6.80;3.40;;;;;;;30.70;33.27;100252.25;125971;1099;103069;-79
2022/07/08 12:29:38;;;;;;;8.70;3.60;;;;;;;30.72;33.25;100247.66;126009;1101;118694;-79
2022/07/08 12:32:15;;;;;;;11.93;3.63;;;;;;;30.88;33.26;100251.30;126102;1099;102266;-78
2022/07/08 12:34:55;;;;;;;8.73;3.60;;;;;;;30.98;33.19;100241.77;126135;1100;102784;-77
2022/07/08 12:37:29;;;;;;;4.83;3.40;;;;;;;31.16;32.91;100250.72;126125;1100;102785;-76
2022/07/08 12:40:16;;;;;;;5.53;3.37;;;;;;;31.14;32.88;100239.09;126180;1099;102259;-78
2022/07/08 12:45:56;;;;;;;8.47;3.30;;;;;;;30.89;32.74;100244.93;116027;1102;10001853;-76
2022/07/08 12:48:28;;;;;;;5.83;3.30;;;;;;;30.93;32.72;100232.09;124647;1102;103279;-77
2022/07/08 12:51:00;;;;;;;7.50;3.70;;;;;;;30.93;32.46;100243.82;124626;1102;104179;-77
2022/07/08 12:53:47;;;;;;;6.50;3.80;;;;;;;30.78;32.38;100231.95;124348;1105;103366;-76
2022/07/08 12:56:27;;;;;;;7.83;3.50;;;;;;;30.63;32.51;100235.46;124457;1102;102863;-78
2022/07/08 12:59:01;;;;;;;5.97;3.67;;;;;;;30.53;32.50;100223.37;124416;1102;104246;-79
2022/07/08 13:01:39;;;;;;;6.77;3.47;;;;;;;30.49;32.65;100225.34;125207;1105;104219;-80
2022/07/08 13:04:42;;;;;;;;;;;;;;;;;;;;;
2022/07/08 13:07:30;;;;;;;9.15;3.30;;;;;;;30.71;32.74;100214.27;124322;1102;108965;-79
2022/07/08 13:10:02;;;;;;;12.03;3.30;;;;;;;30.89;32.55;100200.73;124435;1102;104264;-77